Time;durP1;ratioP1;P1;durP2;ratioP2;P2;SDS_P1;SDS_P2;PMS_P1;PMS_P2;Temp;Humidity;BMP_temperature;BMP_pressure;BME280_temperature;BME280_humidity;BME280_pressure;Samples;Min_cycle;Max_cycle;Signal;HPM_P1;HPM_P2
2022/04/25 00:01:03;;;;;;;6.72;5.57;;;;;;;-148.33;100.00;56587.81;5049274;28;20083;-59
2022/04/25 00:03:28;;;;;;;6.43;5.63;;;;;;;-148.33;100.00;56587.81;5048975;28;20025;-59
2022/04/25 00:05:53;;;;;;;8.00;5.82;;;;;;;-148.33;100.00;56587.81;5049265;28;20040;-58
2022/04/25 00:08:18;;;;;;;11.07;6.07;;;;;;;-148.33;100.00;56587.81;5048724;28;20094;-59
2022/04/25 00:10:44;;;;;;;8.35;5.97;;;;;;;-148.33;100.00;56587.81;5048422;28;20611;-58
2022/04/25 00:13:10;;;;;;;8.40;4.97;;;;;;;-148.33;100.00;56587.81;5048982;28;20028;-59
2022/04/25 00:15:36;;;;;;;8.65;5.78;;;;;;;-148.33;100.00;56587.81;5039143;28;20056;-59
2022/04/25 00:18:01;;;;;;;8.68;6.38;;;;;;;-148.33;100.00;56587.81;5029929;28;20445;-59
2022/04/25 00:20:27;;;;;;;8.88;5.80;;;;;;;-148.33;100.00;56587.81;5029742;28;20041;-59
2022/04/25 00:22:52;;;;;;;9.02;6.10;;;;;;;-148.33;100.00;56587.81;5029595;28;20044;-59
2022/04/25 00:25:17;;;;;;;8.05;5.95;;;;;;;-148.33;100.00;56587.81;5029331;28;20477;-60
2022/04/25 00:27:42;;;;;;;8.57;5.93;;;;;;;-148.33;100.00;56587.81;5029811;28;20029;-60
2022/04/25 00:30:08;;;;;;;6.57;5.78;;;;;;;-148.33;100.00;56587.81;5029559;28;20025;-60
2022/04/25 00:32:34;;;;;;;9.13;5.80;;;;;;;-148.33;100.00;56587.81;5029279;28;20392;-59
2022/04/25 00:34:59;;;;;;;6.18;5.50;;;;;;;-148.33;100.00;56587.81;5029315;28;20021;-58
2022/04/25 00:37:24;;;;;;;10.40;6.47;;;;;;;-148.33;100.00;56587.81;5029288;28;20033;-59
2022/04/25 00:39:50;;;;;;;6.60;5.90;;;;;;;-148.33;100.00;56587.81;5029763;28;20052;-59
2022/04/25 00:42:15;;;;;;;9.50;5.90;;;;;;;-148.33;100.00;56587.81;5029283;28;20100;-59
2022/04/25 00:44:44;;;;;;;8.13;6.38;;;;;;;-148.33;100.00;56587.81;5029646;28;20025;-60
2022/04/25 00:47:09;;;;;;;9.23;5.57;;;;;;;-148.33;100.00;56587.81;5029224;28;20812;-59
2022/04/25 00:49:35;;;;;;;8.30;6.28;;;;;;;-148.33;100.00;56587.81;5029836;28;20117;-59
2022/04/25 00:52:00;;;;;;;11.10;6.38;;;;;;;-148.33;100.00;56587.81;5029237;28;20474;-58
2022/04/25 00:54:26;;;;;;;8.20;5.60;;;;;;;-148.33;100.00;56587.81;5028637;28;20024;-60
2022/04/25 00:56:51;;;;;;;9.90;6.50;;;;;;;-148.33;100.00;56587.81;5029395;28;20477;-59
2022/04/25 00:59:21;;;;;;;8.02;6.20;;;;;;;-148.33;100.00;56587.81;5039968;28;20036;-59
2022/04/25 01:01:47;;;;;;;9.13;6.72;;;;;;;-148.33;100.00;56587.81;5048238;28;20089;-59
2022/04/25 01:04:12;;;;;;;10.45;6.82;;;;;;;-148.33;100.00;56587.81;5047629;28;20029;-59
2022/04/25 01:06:38;;;;;;;10.82;6.93;;;;;;;-148.33;100.00;56587.81;5048206;28;20032;-59
2022/04/25 01:09:04;;;;;;;7.88;6.30;;;;;;;-148.33;100.00;56587.81;5047736;28;20025;-58
2022/04/25 01:11:30;;;;;;;9.23;6.60;;;;;;;-148.33;100.00;56587.81;5047686;28;20167;-59
2022/04/25 01:13:55;;;;;;;8.90;6.38;;;;;;;-148.33;100.00;56587.81;5047617;28;20104;-59
2022/04/25 01:16:20;;;;;;;7.30;6.57;;;;;;;-148.33;100.00;56587.81;5047952;28;20078;-58
2022/04/25 01:18:46;;;;;;;8.88;7.03;;;;;;;-148.33;100.00;56587.81;5047905;28;20486;-59
2022/04/25 01:21:13;;;;;;;9.05;7.35;;;;;;;-148.33;100.00;56587.81;5046408;28;20362;-58
2022/04/25 01:29:09;;;;;;;12.20;7.13;;;;;;;-148.33;100.00;56587.81;5048031;28;20094;-58
2022/04/25 01:31:34;;;;;;;10.63;7.03;;;;;;;-148.33;100.00;56587.81;5047609;28;20377;-58
2022/04/25 01:33:59;;;;;;;10.15;7.15;;;;;;;-148.33;100.00;56587.81;5046175;28;20106;-59
2022/04/25 01:36:26;;;;;;;9.23;7.38;;;;;;;-148.33;100.00;56587.81;5047656;28;20064;-58
2022/04/25 01:38:52;;;;;;;10.68;7.82;;;;;;;-148.33;100.00;56587.81;5047047;28;20029;-57
2022/04/25 01:41:18;;;;;;;10.20;8.05;;;;;;;-148.33;100.00;56587.81;5047202;28;20028;-58
2022/04/25 01:43:43;;;;;;;11.10;7.38;;;;;;;-148.33;100.00;56587.81;5047601;28;20075;-59
2022/04/25 01:46:09;;;;;;;11.82;7.78;;;;;;;-148.33;100.00;56587.81;5047143;28;20078;-57
2022/04/25 01:48:34;;;;;;;9.55;8.40;;;;;;;-148.33;100.00;56587.81;5047146;28;20029;-58
2022/04/25 01:50:59;;;;;;;8.05;7.25;;;;;;;-148.33;100.00;56587.81;5043262;28;20029;-59
2022/04/25 01:53:25;;;;;;;10.80;8.13;;;;;;;-148.33;100.00;56587.81;5044857;28;20116;-59
2022/04/25 01:55:50;;;;;;;11.00;8.38;;;;;;;-148.33;100.00;56587.81;5047116;28;20021;-58
2022/04/25 01:58:15;;;;;;;9.32;8.20;;;;;;;-148.33;100.00;56587.81;5046982;28;20057;-59
2022/04/25 02:00:41;;;;;;;9.77;8.32;;;;;;;-148.33;100.00;56587.81;5047309;28;20377;-57
2022/04/25 02:03:09;;;;;;;11.90;8.45;;;;;;;-148.33;100.00;56587.81;5047293;28;20033;-57
2022/04/25 02:05:34;;;;;;;9.35;8.43;;;;;;;-148.33;100.00;56587.81;5047373;28;20034;-58
2022/04/25 02:08:00;;;;;;;10.73;7.55;;;;;;;-148.33;100.00;56587.81;5046970;28;20119;-57
2022/04/25 02:10:25;;;;;;;10.57;8.40;;;;;;;-148.33;100.00;56587.81;5046620;28;20052;-58
2022/04/25 02:12:50;;;;;;;10.90;7.82;;;;;;;-148.33;100.00;56587.81;5046565;28;20027;-56
2022/04/25 02:15:15;;;;;;;11.57;9.35;;;;;;;-148.33;100.00;56587.81;5047212;28;20465;-57
2022/04/25 02:17:44;;;;;;;12.57;8.88;;;;;;;-148.33;100.00;56587.81;5047402;28;20063;-58
2022/04/25 02:20:11;;;;;;;10.70;8.52;;;;;;;-148.33;100.00;56587.81;5047142;28;20298;-58
2022/04/25 02:22:36;;;;;;;9.82;8.35;;;;;;;-148.33;100.00;56587.81;5047160;28;20075;-58
2022/04/25 02:25:02;;;;;;;14.65;8.13;;;;;;;-148.33;100.00;56587.81;5046341;28;20052;-59
2022/04/25 02:27:28;;;;;;;12.73;8.88;;;;;;;-148.33;100.00;56587.81;5034172;28;20040;-58
2022/04/25 02:29:57;;;;;;;12.23;7.95;;;;;;;-148.33;100.00;56587.81;5027911;28;20029;-58
2022/04/25 02:32:23;;;;;;;10.95;9.10;;;;;;;-148.33;100.00;56587.81;5029623;28;20025;-56
2022/04/25 02:34:50;;;;;;;11.00;8.07;;;;;;;-148.33;100.00;56587.81;5031376;28;20653;-58
2022/04/25 02:37:15;;;;;;;9.77;8.77;;;;;;;-148.33;100.00;56587.81;5031909;28;20477;-58
2022/04/25 02:39:41;;;;;;;9.88;8.85;;;;;;;-148.33;100.00;56587.81;5031136;28;20059;-57
2022/04/25 02:42:06;;;;;;;10.32;8.63;;;;;;;-148.33;100.00;56587.81;5043947;28;20029;-57
2022/04/25 02:44:31;;;;;;;12.95;8.90;;;;;;;-148.33;100.00;56587.81;5050669;28;20040;-58
2022/04/25 02:46:57;;;;;;;12.00;9.13;;;;;;;-148.33;100.00;56587.81;5049250;28;20116;-59
2022/04/25 02:49:22;;;;;;;12.02;8.80;;;;;;;-148.33;100.00;56587.81;5050655;28;20025;-59
2022/04/25 02:51:47;;;;;;;10.68;8.93;;;;;;;-148.33;100.00;56587.81;5050974;28;20032;-58
2022/04/25 02:54:12;;;;;;;10.55;8.63;;;;;;;-148.33;100.00;56587.81;5049457;28;20028;-59
2022/04/25 02:56:38;;;;;;;13.57;9.20;;;;;;;-148.33;100.00;56587.81;5050374;28;20017;-59
2022/04/25 02:59:03;;;;;;;10.40;9.32;;;;;;;-148.33;100.00;56587.81;5050242;28;20025;-59
2022/04/25 03:01:28;;;;;;;11.63;9.38;;;;;;;-148.33;100.00;56587.81;5050593;28;20419;-59
2022/04/25 03:03:54;;;;;;;10.20;9.10;;;;;;;-148.33;100.00;56587.81;5049500;28;20035;-58
2022/04/25 03:06:19;;;;;;;11.45;9.65;;;;;;;-148.33;100.00;56587.81;5050028;28;20098;-60
2022/04/25 03:08:44;;;;;;;11.65;9.98;;;;;;;-148.33;100.00;56587.81;5042303;28;20038;-59
2022/04/25 03:11:09;;;;;;;12.57;9.45;;;;;;;-148.33;100.00;56587.81;5030725;28;20025;-59
2022/04/25 03:13:36;;;;;;;13.13;10.18;;;;;;;-148.33;100.00;56587.81;5031107;28;20460;-59
2022/04/25 03:16:04;;;;;;;15.27;10.00;;;;;;;-148.33;100.00;56587.81;5031021;28;20030;-59
2022/04/25 03:18:29;;;;;;;15.68;10.43;;;;;;;-148.33;100.00;56587.81;5030318;28;20397;-58
2022/04/25 03:20:56;;;;;;;15.50;9.80;;;;;;;-148.33;100.00;56587.81;5042771;28;20063;-58
2022/04/25 03:23:23;;;;;;;12.63;9.40;;;;;;;-148.33;100.00;56587.81;5031170;28;20049;-57
2022/04/25 03:25:49;;;;;;;16.17;10.60;;;;;;;-148.33;100.00;56587.81;5030839;28;20029;-59
2022/04/25 03:28:15;;;;;;;11.87;10.43;;;;;;;-148.33;100.00;56587.81;5030836;28;20083;-59
2022/04/25 03:30:41;;;;;;;14.82;10.63;;;;;;;-148.33;100.00;56587.81;5030283;28;20029;-60
2022/04/25 03:33:08;;;;;;;12.95;10.35;;;;;;;-148.33;100.00;56587.81;5030938;28;20386;-58
2022/04/25 03:35:33;;;;;;;12.18;10.10;;;;;;;-148.33;100.00;56587.81;5043580;28;20182;-58
2022/04/25 03:37:59;;;;;;;11.43;9.67;;;;;;;-148.33;100.00;56587.81;5049712;28;20025;-57
2022/04/25 03:40:25;;;;;;;10.83;9.70;;;;;;;-148.33;100.00;56587.81;5037559;28;20029;-58
2022/04/25 03:42:50;;;;;;;13.47;10.70;;;;;;;-148.33;100.00;56587.81;5029482;28;20233;-58
2022/04/25 03:45:18;;;;;;;12.75;10.02;;;;;;;-148.33;100.00;56587.81;5030285;28;20449;-57
2022/04/25 03:47:45;;;;;;;13.20;10.05;;;;;;;-148.33;100.00;56587.81;5048836;28;20443;-57
2022/04/25 03:50:13;;;;;;;12.93;10.02;;;;;;;-148.33;100.00;56587.81;5049556;28;20437;-55
2022/04/25 03:52:42;;;;;;;15.03;11.07;;;;;;;-148.33;100.00;56587.81;5049439;28;20296;-58
2022/04/25 03:57:57;;;;;;;11.30;10.05;;;;;;;-148.33;100.00;56587.81;5049393;28;20047;-57
2022/04/25 04:00:23;;;;;;;13.07;10.90;;;;;;;-148.33;100.00;56587.81;5048967;28;20025;-58
2022/04/25 04:02:49;;;;;;;14.40;10.93;;;;;;;-148.33;100.00;56587.81;5049565;28;20396;-58
2022/04/25 04:05:14;;;;;;;14.40;10.93;;;;;;;-148.33;100.00;56587.81;5049181;28;20280;-59
2022/04/25 04:07:40;;;;;;;11.07;9.82;;;;;;;-148.33;100.00;56587.81;5049529;28;20028;-57
2022/04/25 04:10:06;;;;;;;11.48;10.35;;;;;;;-148.33;100.00;56587.81;5049074;28;20438;-56
2022/04/25 04:12:32;;;;;;;14.15;9.82;;;;;;;-148.33;100.00;56587.81;5028854;28;20520;-57
2022/04/25 04:14:58;;;;;;;12.20;10.23;;;;;;;-148.33;100.00;56587.81;5028482;28;20061;-57
2022/04/25 04:17:24;;;;;;;14.63;11.40;;;;;;;-148.33;100.00;56587.81;5028317;28;20036;-58
2022/04/25 04:19:52;;;;;;;13.75;11.35;;;;;;;-148.33;100.00;56587.81;5027820;28;20037;-58
2022/04/25 04:22:17;;;;;;;14.43;11.20;;;;;;;-148.33;100.00;56587.81;5028140;28;20104;-58
2022/04/25 04:24:43;;;;;;;13.03;11.73;;;;;;;-148.33;100.00;56587.81;5027430;28;20086;-57
2022/04/25 04:27:08;;;;;;;13.73;11.00;;;;;;;-148.33;100.00;56587.81;5027811;28;20029;-58
2022/04/25 04:29:35;;;;;;;14.90;11.00;;;;;;;-148.33;100.00;56587.81;5029456;28;20021;-57
2022/04/25 04:32:02;;;;;;;12.67;11.10;;;;;;;-148.33;100.00;56587.81;5029167;28;20033;-59
2022/04/25 04:34:28;;;;;;;12.32;11.13;;;;;;;-148.33;100.00;56587.81;5028967;28;20049;-58
2022/04/25 04:36:54;;;;;;;13.50;12.00;;;;;;;-148.33;100.00;56587.81;5040340;28;20028;-57
2022/04/25 04:39:20;;;;;;;14.25;11.30;;;;;;;-148.33;100.00;56587.81;5047654;28;20017;-57
2022/04/25 04:41:45;;;;;;;15.67;12.30;;;;;;;-148.33;100.00;56587.81;5048527;28;20040;-58
2022/04/25 04:44:11;;;;;;;15.03;11.83;;;;;;;-148.33;100.00;56587.81;5048283;28;20029;-57
2022/04/25 04:46:36;;;;;;;16.60;12.32;;;;;;;-148.33;100.00;56587.81;5047404;28;20496;-58
2022/04/25 04:49:02;;;;;;;17.20;13.37;;;;;;;-148.33;100.00;56587.81;5048166;28;20076;-58
2022/04/25 04:51:27;;;;;;;15.45;12.80;;;;;;;-148.33;100.00;56587.81;5046193;28;20036;-59
2022/04/25 04:53:53;;;;;;;15.55;12.05;;;;;;;-148.33;100.00;56587.81;5029206;28;20362;-58
2022/04/25 04:56:18;;;;;;;14.90;13.00;;;;;;;-148.33;100.00;56587.81;5028803;28;20040;-58
2022/04/25 04:58:43;;;;;;;15.18;12.90;;;;;;;-148.33;100.00;56587.81;5028948;28;20029;-58
2022/04/25 05:01:09;;;;;;;18.40;13.50;;;;;;;-148.33;100.00;56587.81;5029094;28;20036;-56
2022/04/25 05:03:35;;;;;;;17.03;14.03;;;;;;;-148.33;100.00;56587.81;5029333;28;20422;-58
2022/04/25 05:06:00;;;;;;;17.80;14.00;;;;;;;-148.33;100.00;56587.81;5029145;28;20458;-58
2022/04/25 05:08:25;;;;;;;18.33;14.60;;;;;;;-148.33;100.00;56587.81;5028901;28;20060;-57
2022/04/25 05:10:53;;;;;;;16.87;13.93;;;;;;;-148.33;100.00;56587.81;5036549;28;20118;-59
2022/04/25 05:13:20;;;;;;;19.23;14.10;;;;;;;-148.33;100.00;56587.81;5034699;28;20276;-56
2022/04/25 05:15:46;;;;;;;16.08;14.52;;;;;;;-148.33;100.00;56587.81;5029847;28;20393;-61
2022/04/25 05:18:11;;;;;;;16.83;14.30;;;;;;;-148.33;100.00;56587.81;5028334;28;20025;-56
2022/04/25 05:20:36;;;;;;;17.83;14.43;;;;;;;-148.33;100.00;56587.81;5028663;28;20064;-58
2022/04/25 05:23:03;;;;;;;16.30;14.57;;;;;;;-148.33;100.00;56587.81;5028373;28;20462;-58
2022/04/25 05:25:29;;;;;;;19.03;13.90;;;;;;;-148.33;100.00;56587.81;5028551;28;20033;-58
2022/04/25 05:27:55;;;;;;;15.73;13.68;;;;;;;-148.33;100.00;56587.81;5028384;28;20036;-58
2022/04/25 05:30:22;;;;;;;18.13;14.07;;;;;;;-148.33;100.00;56587.81;5037925;28;20025;-57
2022/04/25 05:32:50;;;;;;;17.25;14.52;;;;;;;-148.33;100.00;56587.81;5039644;28;20060;-58
2022/04/25 05:35:16;;;;;;;15.55;13.43;;;;;;;-148.33;100.00;56587.81;5038175;28;20021;-57
2022/04/25 05:37:43;;;;;;;17.05;15.23;;;;;;;-148.33;100.00;56587.81;5030267;28;20614;-58
2022/04/25 05:40:09;;;;;;;15.82;14.23;;;;;;;-148.33;100.00;56587.81;5028018;28;20029;-58
2022/04/25 05:42:35;;;;;;;19.30;13.48;;;;;;;-148.33;100.00;56587.81;5028238;28;20033;-57
2022/04/25 05:45:01;;;;;;;18.63;14.80;;;;;;;-148.33;100.00;56587.81;5028679;28;20091;-58
2022/04/25 05:47:27;;;;;;;18.38;14.38;;;;;;;-148.33;100.00;56587.81;5028387;28;20036;-59
2022/04/25 05:52:37;;;;;;;17.23;15.45;;;;;;;-148.33;100.00;56587.81;5028076;28;20552;-58
2022/04/25 05:55:03;;;;;;;18.27;14.85;;;;;;;-148.33;100.00;56587.81;5027846;28;20112;-55
2022/04/25 05:57:29;;;;;;;19.17;15.80;;;;;;;-148.33;100.00;56587.81;5028243;28;20029;-59
2022/04/25 05:59:54;;;;;;;18.20;15.35;;;;;;;-148.33;100.00;56587.81;5041772;28;20029;-57
2022/04/25 06:02:19;;;;;;;17.02;14.98;;;;;;;-148.33;100.00;56587.81;5039581;28;20131;-56
2022/04/25 06:04:45;;;;;;;16.45;14.77;;;;;;;-148.33;100.00;56587.81;5028474;28;20044;-57
2022/04/25 06:07:11;;;;;;;23.83;16.30;;;;;;;-148.33;100.00;56587.81;5029974;28;20608;-57
2022/04/25 06:09:36;;;;;;;16.88;15.23;;;;;;;-148.33;100.00;56587.81;5031811;28;20059;-58
2022/04/25 06:12:04;;;;;;;17.73;16.02;;;;;;;-148.33;100.00;56587.81;5032276;28;20470;-58
2022/04/25 06:14:30;;;;;;;19.17;16.85;;;;;;;-148.33;100.00;56587.81;5049068;28;20032;-57
2022/04/25 06:16:56;;;;;;;18.58;16.40;;;;;;;-148.33;100.00;56587.81;5045044;28;20100;-58
2022/04/25 06:19:21;;;;;;;16.58;14.88;;;;;;;-148.33;100.00;56587.81;5032042;28;20033;-58
2022/04/25 06:21:46;;;;;;;18.55;15.88;;;;;;;-148.33;100.00;56587.81;5036621;28;20033;-57
2022/04/25 06:24:12;;;;;;;18.48;16.48;;;;;;;-148.33;100.00;56587.81;5032226;28;20033;-58
2022/04/25 06:26:37;;;;;;;17.90;16.00;;;;;;;-148.33;100.00;56587.81;5030838;28;20026;-57
2022/04/25 06:29:02;;;;;;;18.33;15.30;;;;;;;-148.33;100.00;56587.81;5032044;28;20037;-56
2022/04/25 06:31:28;;;;;;;18.20;16.27;;;;;;;-148.33;100.00;56587.81;5031967;28;20120;-55
2022/04/25 06:33:53;;;;;;;18.00;16.10;;;;;;;-148.33;100.00;56587.81;5031642;28;20057;-58
2022/04/25 06:36:18;;;;;;;17.80;15.95;;;;;;;-148.33;100.00;56587.81;5037652;28;20469;-57
2022/04/25 06:38:44;;;;;;;18.40;15.82;;;;;;;-148.33;100.00;56587.81;5048370;28;20032;-56
2022/04/25 06:41:09;;;;;;;20.27;16.10;;;;;;;-148.33;100.00;56587.81;5048149;28;20288;-56
2022/04/25 06:43:36;;;;;;;18.60;16.88;;;;;;;-148.33;100.00;56587.81;5046119;28;20028;-58
2022/04/25 06:46:02;;;;;;;18.80;16.90;;;;;;;-148.33;100.00;56587.81;5044258;28;20056;-56
2022/04/25 06:48:27;;;;;;;20.20;17.02;;;;;;;-148.33;100.00;56587.81;5047149;28;20027;-58
2022/04/25 06:50:55;;;;;;;19.20;17.00;;;;;;;-148.33;100.00;56587.81;5047733;28;20035;-57
2022/04/25 06:53:20;;;;;;;18.15;16.35;;;;;;;-148.33;100.00;56587.81;5031704;28;20033;-57
2022/04/25 06:55:46;;;;;;;19.65;17.65;;;;;;;-148.33;100.00;56587.81;5038664;28;20072;-58
2022/04/25 06:58:12;;;;;;;18.52;16.73;;;;;;;-148.33;100.00;56587.81;5044527;28;20415;-58
2022/04/25 07:00:38;;;;;;;21.30;17.17;;;;;;;-148.33;100.00;56587.81;5045412;28;20047;-60
2022/04/25 07:03:04;;;;;;;19.27;17.33;;;;;;;-148.33;100.00;56587.81;5032387;28;20027;-57
2022/04/25 07:05:30;;;;;;;19.30;17.30;;;;;;;-148.33;100.00;56587.81;5031443;28;20098;-57
2022/04/25 07:07:55;;;;;;;18.67;16.85;;;;;;;-148.33;100.00;56587.81;5031024;28;20474;-59
2022/04/25 07:10:21;;;;;;;18.10;16.40;;;;;;;-148.33;100.00;56587.81;5030715;28;20025;-59
2022/04/25 07:12:46;;;;;;;22.90;18.10;;;;;;;-148.33;100.00;56587.81;5031452;28;20529;-57
2022/04/25 07:15:11;;;;;;;19.60;17.20;;;;;;;-148.33;100.00;56587.81;5030623;28;20029;-59
2022/04/25 07:17:37;;;;;;;19.42;17.48;;;;;;;-148.33;100.00;56587.81;5030662;28;20029;-58
2022/04/25 07:20:03;;;;;;;20.90;17.92;;;;;;;-148.33;100.00;56587.81;5031152;28;20072;-58
2022/04/25 07:30:40;;;;;;;20.67;16.92;;;;;;;-148.33;100.00;56587.81;5030947;28;20103;-58
2022/04/25 07:33:05;;;;;;;19.83;17.90;;;;;;;-148.33;100.00;56587.81;5030624;28;20499;-59
2022/04/25 07:35:31;;;;;;;20.65;18.58;;;;;;;-148.33;100.00;56587.81;5032797;28;20039;-59
2022/04/25 07:37:56;;;;;;;21.15;19.05;;;;;;;-148.33;100.00;56587.81;5040128;28;20420;-60
2022/04/25 07:40:23;;;;;;;20.80;18.60;;;;;;;-148.33;100.00;56587.81;5045458;28;20098;-57
2022/04/25 07:42:48;;;;;;;21.13;18.90;;;;;;;-148.33;100.00;56587.81;5045426;28;20033;-60
2022/04/25 07:45:14;;;;;;;21.08;19.15;;;;;;;-148.33;100.00;56587.81;5037619;28;20075;-59
2022/04/25 07:47:42;;;;;;;22.23;20.10;;;;;;;-148.33;100.00;56587.81;5030647;28;20454;-59
2022/04/25 07:50:09;;;;;;;24.02;19.55;;;;;;;-148.33;100.00;56587.81;5035258;28;20397;-58
2022/04/25 07:52:35;;;;;;;21.38;19.20;;;;;;;-148.33;100.00;56587.81;5030393;28;20029;-58
2022/04/25 07:55:00;;;;;;;21.48;19.27;;;;;;;-148.33;100.00;56587.81;5034538;28;20060;-59
2022/04/25 07:57:25;;;;;;;22.75;20.30;;;;;;;-148.33;100.00;56587.81;5049380;28;20236;-58
2022/04/25 07:59:51;;;;;;;23.52;21.05;;;;;;;-148.33;100.00;56587.81;5049250;28;20112;-59
2022/04/25 08:02:19;;;;;;;22.25;20.05;;;;;;;-148.33;100.00;56587.81;5049175;28;20025;-58
2022/04/25 08:04:48;;;;;;;22.42;20.15;;;;;;;-148.33;100.00;56587.81;5043346;28;20347;-58
2022/04/25 08:07:13;;;;;;;23.80;21.33;;;;;;;-148.33;100.00;56587.81;5029166;28;20033;-59
2022/04/25 08:09:39;;;;;;;24.25;21.67;;;;;;;-148.33;100.00;56587.81;5028417;28;20036;-58
2022/04/25 08:20:16;;;;;;;26.00;23.30;;;;;;;-148.33;100.00;56587.81;5027653;28;20040;-58
2022/04/25 08:22:41;;;;;;;26.35;23.52;;;;;;;-148.33;100.00;56587.81;5028605;28;20413;-58
2022/04/25 08:25:08;;;;;;;27.48;24.77;;;;;;;-148.33;100.00;56587.81;5027809;28;20401;-58
2022/04/25 08:27:34;;;;;;;27.92;24.92;;;;;;;-148.33;100.00;56587.81;5028126;28;20029;-58
2022/04/25 08:29:59;;;;;;;27.30;24.45;;;;;;;-148.33;100.00;56587.81;5027461;28;20477;-59
2022/04/25 08:32:25;;;;;;;27.58;24.58;;;;;;;-148.33;100.00;56587.81;5027983;28;20525;-58
2022/04/25 08:34:50;;;;;;;27.55;24.77;;;;;;;-148.33;100.00;56587.81;5026806;28;20441;-57
2022/04/25 08:37:18;;;;;;;28.02;25.02;;;;;;;-148.33;100.00;56587.81;5029313;28;20029;-59
2022/04/25 08:39:43;;;;;;;27.85;24.95;;;;;;;-148.33;100.00;56587.81;5029853;28;20462;-58
2022/04/25 08:42:09;;;;;;;28.30;25.27;;;;;;;-148.33;100.00;56587.81;5029344;28;20474;-57
2022/04/25 08:44:35;;;;;;;28.48;25.55;;;;;;;-148.33;100.00;56587.81;5029124;28;20493;-60
2022/04/25 08:47:01;;;;;;;27.42;24.70;;;;;;;-148.33;100.00;56587.81;5029622;28;20117;-59
2022/04/25 08:49:27;;;;;;;27.83;25.17;;;;;;;-148.33;100.00;56587.81;5029391;28;20044;-59
2022/04/25 08:51:58;;;;;;;28.27;25.60;;;;;;;-148.33;100.00;56587.81;5028832;28;20033;-58
2022/04/25 08:54:32;;;;;;;28.52;25.38;;;;;;;-148.33;100.00;56587.81;5029025;28;20100;-58
2022/04/25 08:56:59;;;;;;;28.20;25.08;;;;;;;-148.33;100.00;56587.81;5028514;28;20022;-57
2022/04/25 08:59:26;;;;;;;28.33;25.45;;;;;;;-148.33;100.00;56587.81;5028987;28;20035;-59
2022/04/25 09:01:52;;;;;;;28.30;25.40;;;;;;;-148.33;100.00;56587.81;5029090;28;20029;-59
2022/04/25 09:04:17;;;;;;;27.75;25.05;;;;;;;-148.33;100.00;56587.81;5029063;28;20024;-59
2022/04/25 09:06:43;;;;;;;30.02;26.92;;;;;;;-148.33;100.00;56587.81;5028889;28;20026;-57
2022/04/25 09:09:09;;;;;;;26.45;23.88;;;;;;;-148.33;100.00;56587.81;5028922;28;20378;-58
2022/04/25 09:14:18;;;;;;;27.98;25.08;;;;;;;-148.33;100.00;56587.81;5028935;28;20091;-58
2022/04/25 09:16:44;;;;;;;28.98;25.95;;;;;;;-148.33;100.00;56587.81;5028756;28;20026;-59
2022/04/25 09:19:10;;;;;;;30.38;27.25;;;;;;;-148.33;100.00;56587.81;5028655;28;20029;-59
2022/04/25 09:21:43;;;;;;;27.98;25.17;;;;;;;-148.33;100.00;56587.81;5028272;28;20033;-57
2022/04/25 09:24:35;;;;;;;31.70;27.10;;;;;;;-148.33;100.00;56587.81;5028753;28;20044;-58
2022/04/25 09:27:06;;;;;;;30.33;27.52;;;;;;;-148.33;100.00;56587.81;5041675;28;20035;-58
2022/04/25 09:29:31;;;;;;;30.92;27.20;;;;;;;-148.33;100.00;56587.81;5028536;28;20097;-57
2022/04/25 09:31:57;;;;;;;30.35;27.42;;;;;;;-148.33;100.00;56587.81;5040380;28;20028;-59
2022/04/25 09:37:06;;;;;;;37.40;27.23;;;;;;;-148.33;100.00;56587.81;5028263;28;20413;-59
2022/04/25 09:39:32;;;;;;;52.33;30.00;;;;;;;-148.33;100.00;56587.81;5027883;28;20029;-59
2022/04/25 09:41:59;;;;;;;30.15;27.00;;;;;;;-148.33;100.00;56587.81;5027730;28;20025;-58
2022/04/25 09:44:25;;;;;;;40.67;27.67;;;;;;;-148.33;100.00;56587.81;5028464;28;20034;-60
2022/04/25 09:46:50;;;;;;;40.42;28.95;;;;;;;-148.33;100.00;56587.81;5028057;28;20478;-59
2022/04/25 09:49:20;;;;;;;29.90;25.95;;;;;;;-148.33;100.00;56587.81;5027589;28;20026;-58
2022/04/25 09:52:04;;;;;;;30.50;27.52;;;;;;;-148.33;100.00;56587.81;5028534;28;20148;-56
2022/04/25 09:54:30;;;;;;;26.52;23.52;;;;;;;-148.33;100.00;56587.81;5027723;28;20037;-59
2022/04/25 09:56:55;;;;;;;25.02;22.77;;;;;;;-148.33;100.00;56587.81;5043950;28;20036;-59
2022/04/25 09:59:21;;;;;;;26.20;23.80;;;;;;;-148.33;100.00;56587.81;5047044;28;20112;-57
2022/04/25 10:02:04;;;;;;;33.78;23.80;;;;;;;-148.33;100.00;56587.81;5047598;28;20067;-57
2022/04/25 10:04:33;;;;;;;23.88;21.70;;;;;;;-148.33;100.00;56587.81;5047468;28;20090;-59
2022/04/25 10:07:00;;;;;;;23.50;21.40;;;;;;;-148.33;100.00;56587.81;5046963;28;20113;-58
2022/04/25 10:09:29;;;;;;;24.90;22.70;;;;;;;-148.33;100.00;56587.81;5046884;28;20100;-58
2022/04/25 10:11:58;;;;;;;24.67;22.40;;;;;;;-148.33;100.00;56587.81;5045903;28;20033;-57
2022/04/25 10:14:26;;;;;;;21.88;19.92;;;;;;;-148.33;100.00;56587.81;5044294;28;20108;-58
2022/04/25 10:16:58;;;;;;;22.90;20.90;;;;;;;-148.33;100.00;56587.81;5043737;28;20428;-59
2022/04/25 10:19:25;;;;;;;25.05;22.75;;;;;;;-148.33;100.00;56587.81;5040541;28;20036;-57
2022/04/25 10:21:52;;;;;;;24.60;22.30;;;;;;;-148.33;100.00;56587.81;5042094;28;20025;-58
2022/04/25 10:24:18;;;;;;;23.70;21.52;;;;;;;-148.33;100.00;56587.81;5045028;28;20027;-59
2022/04/25 10:26:46;;;;;;;25.20;22.80;;;;;;;-148.33;100.00;56587.81;5035390;28;20037;-60
2022/04/25 10:29:16;;;;;;;24.77;22.65;;;;;;;-148.33;100.00;56587.81;5039561;28;20032;-59
2022/04/25 10:31:43;;;;;;;23.98;21.88;;;;;;;-148.33;100.00;56587.81;5045299;28;20168;-59
2022/04/25 10:34:09;;;;;;;23.88;21.70;;;;;;;-148.33;100.00;56587.81;5033594;28;20401;-59
2022/04/25 10:36:37;;;;;;;25.08;22.88;;;;;;;-148.33;100.00;56587.81;5029839;28;20022;-59
2022/04/25 10:39:19;;;;;;;26.17;23.58;;;;;;;-148.33;100.00;56587.81;5029687;28;20040;-58
2022/04/25 10:44:29;;;;;;;24.38;22.25;;;;;;;-148.33;100.00;56587.81;5040853;28;20035;-59
2022/04/25 10:47:04;;;;;;;24.80;22.30;;;;;;;-148.33;100.00;56587.81;5034459;28;20397;-60
2022/04/25 10:49:34;;;;;;;24.73;22.33;;;;;;;-148.33;100.00;56587.81;5036013;28;20029;-57
2022/04/25 10:52:00;;;;;;;24.50;21.90;;;;;;;-148.33;100.00;56587.81;5036451;28;20040;-60
2022/04/25 10:54:28;;;;;;;21.40;19.45;;;;;;;-148.33;100.00;56587.81;5036698;28;20094;-58
2022/04/25 10:57:09;;;;;;;21.80;19.80;;;;;;;-148.33;100.00;56587.81;5035996;28;20112;-62
2022/04/25 10:59:35;;;;;;;23.35;21.27;;;;;;;-148.33;100.00;56587.81;5036955;28;20087;-60
2022/04/25 11:02:19;;;;;;;24.13;22.02;;;;;;;-148.33;100.00;56587.81;5033009;28;20056;-60
2022/04/25 11:04:44;;;;;;;23.70;21.38;;;;;;;-148.33;100.00;56587.81;5043916;28;20499;-60
2022/04/25 11:07:24;;;;;;;24.05;21.65;;;;;;;-148.33;100.00;56587.81;5031958;28;20030;-58
2022/04/25 11:09:50;;;;;;;23.95;21.55;;;;;;;-148.33;100.00;56587.81;5041740;28;20576;-59
2022/04/25 11:12:16;;;;;;;21.60;19.60;;;;;;;-148.33;100.00;56587.81;5045529;28;20033;-59
2022/04/25 11:15:02;;;;;;;23.38;21.08;;;;;;;-148.33;100.00;56587.81;5037843;28;20036;-59
2022/04/25 11:17:28;;;;;;;23.70;21.50;;;;;;;-148.33;100.00;56587.81;5043768;28;20032;-58
2022/04/25 11:19:55;;;;;;;22.95;20.85;;;;;;;-148.33;100.00;56587.81;5033845;28;20029;-60
2022/04/25 11:22:39;;;;;;;23.48;21.35;;;;;;;-148.33;100.00;56587.81;5048612;28;20115;-59
2022/04/25 11:25:22;;;;;;;24.13;21.67;;;;;;;-148.33;100.00;56587.81;5032586;28;20070;-59
2022/04/25 11:28:11;;;;;;;25.35;22.90;;;;;;;-148.33;100.00;56587.81;5034834;28;20034;-60
2022/04/25 11:30:38;;;;;;;24.48;22.27;;;;;;;-148.33;100.00;56587.81;5039300;28;20040;-59